Time;durP1;ratioP1;P1;durP2;ratioP2;P2;SDS_P1;SDS_P2;PMS_P1;PMS_P2;Temp;Humidity;BMP_temperature;BMP_pressure;BME280_temperature;BME280_humidity;BME280_pressure;Samples;Min_cycle;Max_cycle;Signal;HPM_P1;HPM_P2
2022/04/06 00:01:42;;;;;;;36.87;19.37;;;;;;;;;;5089167;28;20048;-71
2022/04/06 00:04:08;;;;;;;39.83;18.77;;;;;;;;;;5070779;28;20083;-71
2022/04/06 00:06:34;;;;;;;43.17;19.30;;;;;;;;;;5070503;28;20140;-71
2022/04/06 00:09:00;;;;;;;34.23;17.27;;;;;;;;;;5089014;28;20044;-71
2022/04/06 00:11:26;;;;;;;43.53;19.47;;;;;;;;;;5089827;28;20052;-71
2022/04/06 00:13:52;;;;;;;35.63;17.17;;;;;;;;;;5070721;28;20089;-71
2022/04/06 00:16:18;;;;;;;39.93;17.70;;;;;;;;;;5088719;28;20048;-72
2022/04/06 00:18:44;;;;;;;34.53;16.10;;;;;;;;;;5070528;28;20052;-71
2022/04/06 00:21:11;;;;;;;41.17;17.27;;;;;;;;;;5088904;28;20390;-71
2022/04/06 00:23:37;;;;;;;36.37;18.43;;;;;;;;;;5053871;28;20059;-72
2022/04/06 00:26:03;;;;;;;38.50;17.87;;;;;;;;;;5070061;28;20414;-71
2022/04/06 00:28:29;;;;;;;36.17;17.30;;;;;;;;;;5070780;28;20083;-71
2022/04/06 00:30:55;;;;;;;41.87;18.30;;;;;;;;;;5070682;28;20070;-72
2022/04/06 00:33:21;;;;;;;37.37;16.77;;;;;;;;;;5088335;28;20101;-71
2022/04/06 00:35:47;;;;;;;41.43;18.50;;;;;;;;;;5053661;28;20064;-71
2022/04/06 00:38:14;;;;;;;41.50;15.80;;;;;;;;;;5088771;28;20158;-72
2022/04/06 00:40:40;;;;;;;28.43;15.83;;;;;;;;;;5088103;28;20850;-71
2022/04/06 00:43:10;;;;;;;42.77;17.07;;;;;;;;;;5088429;28;20040;-71
2022/04/06 00:45:40;;;;;;;33.73;15.50;;;;;;;;;;5088882;28;20448;-71
2022/04/06 00:48:07;;;;;;;33.63;15.47;;;;;;;;;;5088958;28;20495;-71
2022/04/06 00:50:34;;;;;;;33.90;16.37;;;;;;;;;;5070306;28;20466;-71
2022/04/06 00:53:00;;;;;;;34.53;16.73;;;;;;;;;;5088381;28;20159;-71
2022/04/06 00:55:31;;;;;;;37.23;16.57;;;;;;;;;;5088366;28;20401;-71
2022/04/06 00:57:57;;;;;;;36.83;15.30;;;;;;;;;;5088462;28;20553;-71
2022/04/06 01:00:23;;;;;;;34.47;16.10;;;;;;;;;;5087740;28;20506;-71
2022/04/06 01:02:49;;;;;;;35.00;15.30;;;;;;;;;;5072629;28;20078;-71
2022/04/06 01:05:15;;;;;;;34.63;14.13;;;;;;;;;;5074493;28;20375;-71
2022/04/06 01:07:43;;;;;;;34.20;14.90;;;;;;;;;;5092528;28;20044;-71
2022/04/06 01:10:09;;;;;;;35.67;14.20;;;;;;;;;;5091939;28;20079;-71
2022/04/06 01:12:35;;;;;;;34.07;15.63;;;;;;;;;;5075411;28;20047;-71
2022/04/06 01:15:01;;;;;;;40.90;16.80;;;;;;;;;;5091759;28;20036;-71
2022/04/06 01:17:36;;;;;;;26.50;13.60;;;;;;;;;;5073851;28;20052;-71
2022/04/06 01:20:07;;;;;;;37.30;14.40;;;;;;;;;;5091998;28;20044;-71
2022/04/06 01:22:34;;;;;;;35.53;14.50;;;;;;;;;;5092829;28;20036;-71
2022/04/06 01:25:00;;;;;;;36.33;12.53;;;;;;;;;;5073543;28;20108;-71
2022/04/06 01:27:27;;;;;;;35.63;14.87;;;;;;;;;;5073730;28;20055;-71
2022/04/06 01:29:54;;;;;;;33.17;12.43;;;;;;;;;;5091695;28;20043;-71
2022/04/06 01:32:21;;;;;;;37.67;12.83;;;;;;;;;;5091974;28;20059;-71
2022/04/06 01:34:48;;;;;;;42.53;13.40;;;;;;;;;;5091816;28;20092;-71
2022/04/06 01:37:14;;;;;;;30.97;12.30;;;;;;;;;;5090955;28;20060;-71
2022/04/06 01:39:41;;;;;;;31.17;12.13;;;;;;;;;;5091266;28;20100;-71
2022/04/06 01:42:08;;;;;;;28.30;13.10;;;;;;;;;;5092529;28;20082;-71
2022/04/06 01:44:35;;;;;;;29.43;12.37;;;;;;;;;;5093388;28;20045;-71
2022/04/06 01:47:01;;;;;;;34.03;12.13;;;;;;;;;;5111935;28;20047;-71
2022/04/06 01:52:12;;;;;;;25.77;11.37;;;;;;;;;;5093247;28;20155;-71
2022/04/06 01:54:42;;;;;;;22.57;10.47;;;;;;;;;;5091888;28;20131;-71
2022/04/06 01:57:08;;;;;;;43.20;11.77;;;;;;;;;;5086517;28;20051;-71
2022/04/06 01:59:34;;;;;;;27.43;10.10;;;;;;;;;;5091090;28;20040;-72
2022/04/06 02:02:00;;;;;;;25.33;10.10;;;;;;;;;;5091315;28;20044;-71
2022/04/06 02:04:26;;;;;;;22.10;10.23;;;;;;;;;;5072902;28;20040;-71
2022/04/06 02:06:52;;;;;;;23.07;9.83;;;;;;;;;;5091373;28;20463;-71
2022/04/06 02:09:18;;;;;;;24.77;10.17;;;;;;;;;;5091093;28;20564;-71
2022/04/06 02:11:44;;;;;;;29.50;11.27;;;;;;;;;;5091350;28;20059;-71
2022/04/06 02:14:10;;;;;;;21.60;9.27;;;;;;;;;;5089623;28;20040;-72
2022/04/06 02:16:37;;;;;;;23.53;9.93;;;;;;;;;;5072404;28;20051;-71
2022/04/06 02:19:05;;;;;;;28.23;10.27;;;;;;;;;;5091164;28;20043;-71
2022/04/06 02:21:31;;;;;;;30.47;10.53;;;;;;;;;;5090805;28;20501;-71
2022/04/06 02:23:57;;;;;;;26.80;10.03;;;;;;;;;;5073292;28;20083;-71
2022/04/06 02:26:23;;;;;;;31.17;9.33;;;;;;;;;;5090775;28;20048;-71
2022/04/06 02:28:49;;;;;;;30.23;9.57;;;;;;;;;;5072170;28;20048;-71
2022/04/06 02:31:15;;;;;;;36.90;10.17;;;;;;;;;;5084479;28;20535;-71
2022/04/06 02:33:41;;;;;;;29.63;11.17;;;;;;;;;;5111181;28;20040;-71
2022/04/06 02:36:07;;;;;;;35.10;9.90;;;;;;;;;;5110436;28;20383;-71
2022/04/06 02:38:38;;;;;;;32.67;10.87;;;;;;;;;;5110921;28;20039;-71
2022/04/06 02:41:05;;;;;;;34.63;11.03;;;;;;;;;;5110997;28;20052;-71
2022/04/06 02:43:32;;;;;;;29.97;9.13;;;;;;;;;;5092411;28;20093;-71
2022/04/06 02:45:57;;;;;;;30.13;10.00;;;;;;;;;;5092374;28;20055;-72
2022/04/06 02:48:24;;;;;;;29.93;9.57;;;;;;;;;;5092298;28;20383;-71
2022/04/06 02:50:50;;;;;;;37.03;10.30;;;;;;;;;;5110438;28;20069;-71
2022/04/06 02:53:16;;;;;;;28.63;9.57;;;;;;;;;;5110705;28;20054;-71
2022/04/06 02:55:42;;;;;;;33.87;11.40;;;;;;;;;;5109990;28;20048;-71
2022/04/06 02:58:08;;;;;;;30.87;10.63;;;;;;;;;;5091677;28;20044;-71
2022/04/06 03:00:34;;;;;;;32.80;10.60;;;;;;;;;;5072116;28;20097;-71
2022/04/06 03:03:00;;;;;;;36.13;11.07;;;;;;;;;;5071808;28;20498;-71
2022/04/06 03:05:26;;;;;;;37.60;12.50;;;;;;;;;;5089931;28;20131;-71
2022/04/06 03:07:52;;;;;;;34.43;11.60;;;;;;;;;;5090083;28;20050;-71
2022/04/06 03:10:18;;;;;;;34.10;12.30;;;;;;;;;;5071627;28;20043;-71
2022/04/06 03:12:45;;;;;;;38.50;12.80;;;;;;;;;;5089836;28;20044;-71
2022/04/06 03:15:11;;;;;;;28.73;11.63;;;;;;;;;;5071493;28;20105;-72
2022/04/06 03:17:37;;;;;;;32.80;13.10;;;;;;;;;;5071679;28;20127;-71
2022/04/06 03:20:07;;;;;;;45.03;15.20;;;;;;;;;;5089340;28;20040;-71
2022/04/06 03:22:33;;;;;;;36.37;14.80;;;;;;;;;;5071753;28;20094;-71
2022/04/06 03:24:59;;;;;;;33.33;15.10;;;;;;;;;;5072404;28;20052;-72
2022/04/06 03:27:25;;;;;;;36.57;14.13;;;;;;;;;;5089142;28;20044;-71
2022/04/06 03:29:50;;;;;;;39.13;14.37;;;;;;;;;;5089251;28;20494;-71
2022/04/06 03:32:16;;;;;;;48.50;15.80;;;;;;;;;;5071406;28;20101;-71
2022/04/06 03:34:42;;;;;;;33.40;13.90;;;;;;;;;;5089146;28;20048;-72
2022/04/06 03:37:08;;;;;;;31.40;15.43;;;;;;;;;;5071333;28;20055;-71
2022/04/06 03:39:35;;;;;;;37.93;14.67;;;;;;;;;;5089216;28;20072;-71
2022/04/06 03:42:01;;;;;;;29.80;14.40;;;;;;;;;;5088512;28;20056;-71
2022/04/06 03:44:27;;;;;;;33.00;14.17;;;;;;;;;;5089481;28;20427;-71
2022/04/06 03:46:56;;;;;;;37.57;14.17;;;;;;;;;;5089192;28;20043;-71
2022/04/06 03:49:22;;;;;;;34.53;14.27;;;;;;;;;;5088911;28;20044;-71
2022/04/06 03:51:48;;;;;;;34.63;13.27;;;;;;;;;;5088959;28;20051;-71
2022/04/06 03:54:14;;;;;;;29.17;13.03;;;;;;;;;;5071141;28;20120;-71
2022/04/06 03:56:40;;;;;;;31.97;12.70;;;;;;;;;;5071467;28;20047;-71
2022/04/06 03:59:07;;;;;;;26.57;12.40;;;;;;;;;;5088959;28;20505;-71
2022/04/06 04:01:35;;;;;;;35.57;13.07;;;;;;;;;;5070652;28;20048;-71
2022/04/06 04:04:01;;;;;;;32.13;12.10;;;;;;;;;;5088881;28;20193;-72
2022/04/06 04:06:27;;;;;;;27.43;10.87;;;;;;;;;;5070994;28;20051;-71
2022/04/06 04:08:53;;;;;;;30.43;10.50;;;;;;;;;;5088799;28;20059;-71
2022/04/06 04:11:19;;;;;;;27.00;11.53;;;;;;;;;;5088970;28;20047;-71
2022/04/06 04:13:45;;;;;;;29.40;10.47;;;;;;;;;;5071168;28;20194;-71
2022/04/06 04:16:11;;;;;;;28.27;10.23;;;;;;;;;;5088456;28;20135;-71
2022/04/06 04:18:37;;;;;;;22.90;10.33;;;;;;;;;;5070480;28;20160;-72
2022/04/06 04:23:48;;;;;;;28.30;10.43;;;;;;;;;;5100611;28;20052;-71
2022/04/06 04:26:14;;;;;;;27.07;11.13;;;;;;;;;;5090811;28;20062;-72
2022/04/06 04:28:40;;;;;;;29.73;9.73;;;;;;;;;;5109090;28;20122;-72
2022/04/06 04:31:06;;;;;;;23.10;10.23;;;;;;;;;;5086403;28;20182;-71
2022/04/06 04:33:32;;;;;;;21.73;9.73;;;;;;;;;;5088776;28;20061;-72
2022/04/06 04:35:58;;;;;;;31.47;9.77;;;;;;;;;;5088360;28;20052;-72
2022/04/06 04:38:24;;;;;;;22.47;9.47;;;;;;;;;;5073815;28;20082;-71
2022/04/06 04:40:51;;;;;;;28.77;9.50;;;;;;;;;;5092788;28;20048;-72
2022/04/06 04:43:17;;;;;;;23.40;9.43;;;;;;;;;;5092490;28;20048;-72
2022/04/06 04:45:43;;;;;;;22.70;9.30;;;;;;;;;;5092329;28;20075;-72
2022/04/06 04:48:09;;;;;;;22.47;10.53;;;;;;;;;;5092726;28;20160;-72
2022/04/06 04:50:35;;;;;;;21.83;9.77;;;;;;;;;;5074587;28;20052;-72
2022/04/06 04:53:01;;;;;;;21.27;9.07;;;;;;;;;;5092510;28;20056;-71
2022/04/06 04:55:27;;;;;;;27.33;8.77;;;;;;;;;;5074352;28;20042;-72
2022/04/06 04:57:53;;;;;;;22.73;9.60;;;;;;;;;;5092464;28;20048;-72
2022/04/06 05:00:19;;;;;;;23.20;8.90;;;;;;;;;;5073669;28;20055;-72
2022/04/06 05:02:45;;;;;;;25.07;9.20;;;;;;;;;;5092349;28;20468;-72
2022/04/06 05:05:11;;;;;;;26.93;9.73;;;;;;;;;;5074279;28;20073;-72
2022/04/06 05:07:38;;;;;;;25.67;8.63;;;;;;;;;;5094145;28;20054;-71
2022/04/06 05:10:08;;;;;;;23.20;9.53;;;;;;;;;;5094493;28;20130;-72
2022/04/06 05:12:34;;;;;;;20.13;7.67;;;;;;;;;;5094226;28;20043;-72
2022/04/06 05:15:00;;;;;;;25.87;9.67;;;;;;;;;;5093551;28;20509;-72
2022/04/06 05:17:27;;;;;;;18.53;7.10;;;;;;;;;;5094058;28;20043;-72
2022/04/06 05:19:53;;;;;;;20.83;7.73;;;;;;;;;;5112230;28;20043;-73
2022/04/06 05:22:19;;;;;;;21.53;7.57;;;;;;;;;;5112216;28;20179;-72
2022/04/06 05:24:45;;;;;;;20.30;6.70;;;;;;;;;;5088839;28;20040;-72
2022/04/06 05:27:11;;;;;;;17.00;6.37;;;;;;;;;;5090069;28;20132;-71
2022/04/06 05:29:37;;;;;;;18.23;7.80;;;;;;;;;;5086317;28;20059;-72
2022/04/06 05:32:03;;;;;;;15.53;5.23;;;;;;;;;;5112050;28;20062;-72
2022/04/06 05:34:29;;;;;;;17.00;6.40;;;;;;;;;;5111024;28;20047;-72
2022/04/06 05:36:56;;;;;;;13.80;4.37;;;;;;;;;;5111903;28;20058;-72
2022/04/06 05:39:24;;;;;;;17.23;5.07;;;;;;;;;;5111658;28;20050;-72
2022/04/06 05:41:50;;;;;;;19.53;5.93;;;;;;;;;;5093334;28;20052;-72
2022/04/06 05:44:16;;;;;;;13.43;5.17;;;;;;;;;;5093434;28;20448;-72
2022/04/06 05:46:43;;;;;;;15.87;5.03;;;;;;;;;;5111968;28;20082;-72
2022/04/06 05:49:09;;;;;;;10.03;3.87;;;;;;;;;;5110869;28;20044;-72
2022/04/06 05:51:35;;;;;;;12.13;5.80;;;;;;;;;;5076178;28;20079;-72
2022/04/06 05:54:04;;;;;;;15.53;4.77;;;;;;;;;;5076514;28;20051;-72
2022/04/06 05:56:30;;;;;;;15.00;4.47;;;;;;;;;;5111375;28;20056;-72
2022/04/06 05:58:56;;;;;;;12.23;3.30;;;;;;;;;;5111270;28;20055;-72
2022/04/06 06:01:22;;;;;;;12.37;3.57;;;;;;;;;;5087502;28;20501;-72
2022/04/06 06:03:49;;;;;;;11.27;4.10;;;;;;;;;;5090945;28;20044;-72
2022/04/06 06:06:15;;;;;;;15.73;3.27;;;;;;;;;;5072788;28;20564;-72
2022/04/06 06:08:41;;;;;;;9.40;3.00;;;;;;;;;;5073012;28;20059;-72
2022/04/06 06:11:08;;;;;;;11.67;3.40;;;;;;;;;;5055576;28;20668;-72
2022/04/06 06:13:34;;;;;;;14.80;3.00;;;;;;;;;;5090766;28;20048;-72
2022/04/06 06:16:00;;;;;;;13.50;3.30;;;;;;;;;;5072483;28;20092;-72
2022/04/06 06:18:27;;;;;;;10.30;3.53;;;;;;;;;;5072276;28;20051;-72
2022/04/06 06:20:53;;;;;;;10.90;3.60;;;;;;;;;;5072184;28;20051;-71
2022/04/06 06:23:19;;;;;;;15.23;3.60;;;;;;;;;;5055378;28;20044;-72
2022/04/06 06:25:45;;;;;;;17.93;4.83;;;;;;;;;;5072696;28;20479;-74
2022/04/06 06:28:11;;;;;;;11.20;4.03;;;;;;;;;;5097555;28;20048;-72
2022/04/06 06:30:37;;;;;;;12.80;3.27;;;;;;;;;;5092760;28;20047;-72
2022/04/06 06:33:03;;;;;;;18.40;3.93;;;;;;;;;;5092313;28;20383;-72
2022/04/06 06:35:29;;;;;;;16.90;3.80;;;;;;;;;;5092666;28;20047;-72
2022/04/06 06:37:56;;;;;;;17.97;4.40;;;;;;;;;;5109920;28;20059;-71
2022/04/06 06:40:24;;;;;;;12.00;3.13;;;;;;;;;;5095227;28;20042;-71
2022/04/06 06:42:50;;;;;;;13.30;3.43;;;;;;;;;;5071163;28;20059;-71
2022/04/06 06:45:16;;;;;;;11.53;3.33;;;;;;;;;;5098474;28;20526;-71
2022/04/06 06:47:43;;;;;;;13.90;3.77;;;;;;;;;;5071722;28;20048;-71
2022/04/06 06:50:09;;;;;;;12.37;3.80;;;;;;;;;;5102988;28;20040;-72
2022/04/06 06:52:36;;;;;;;19.63;3.60;;;;;;;;;;5072175;28;20054;-71
2022/04/06 06:55:02;;;;;;;13.43;3.93;;;;;;;;;;5105167;28;20039;-71
2022/04/06 06:57:28;;;;;;;14.57;3.37;;;;;;;;;;5085572;28;20057;-71
2022/04/06 06:59:54;;;;;;;11.93;3.17;;;;;;;;;;5071777;28;20040;-71
2022/04/06 07:02:20;;;;;;;9.93;3.00;;;;;;;;;;5101316;28;20077;-71
2022/04/06 07:04:47;;;;;;;15.43;3.80;;;;;;;;;;5068927;28;20048;-72
2022/04/06 07:07:13;;;;;;;11.03;4.40;;;;;;;;;;5099796;28;20104;-72
2022/04/06 07:09:39;;;;;;;12.33;4.07;;;;;;;;;;5071537;28;20054;-72
2022/04/06 07:12:06;;;;;;;16.13;3.60;;;;;;;;;;5094357;28;20127;-72
2022/04/06 07:14:32;;;;;;;13.67;3.67;;;;;;;;;;5094546;28;20047;-72
2022/04/06 07:16:59;;;;;;;12.57;3.20;;;;;;;;;;5090370;28;20163;-72
2022/04/06 07:19:25;;;;;;;13.00;3.33;;;;;;;;;;5070503;28;20125;-72
2022/04/06 07:21:51;;;;;;;21.50;4.23;;;;;;;;;;5090022;28;20067;-72
2022/04/06 07:24:18;;;;;;;22.60;5.37;;;;;;;;;;5072900;28;20490;-72
2022/04/06 07:26:44;;;;;;;15.87;4.73;;;;;;;;;;5071789;28;20048;-71
2022/04/06 07:29:11;;;;;;;14.93;5.37;;;;;;;;;;5088330;28;20061;-71
2022/04/06 07:31:40;;;;;;;23.33;5.80;;;;;;;;;;5101806;28;20566;-71
2022/04/06 07:34:06;;;;;;;14.77;4.63;;;;;;;;;;5081806;28;20046;-71
2022/04/06 07:36:35;;;;;;;22.17;5.87;;;;;;;;;;5099572;28;20180;-71
2022/04/06 07:39:02;;;;;;;17.50;5.33;;;;;;;;;;5092618;28;20086;-70
2022/04/06 07:41:28;;;;;;;19.60;8.20;;;;;;;;;;5096217;28;20405;-70
2022/04/06 07:43:54;;;;;;;17.53;7.47;;;;;;;;;;5074846;28;20036;-70
2022/04/06 07:46:20;;;;;;;23.70;6.03;;;;;;;;;;5098552;28;20042;-70
2022/04/06 07:48:46;;;;;;;16.17;5.57;;;;;;;;;;5084435;28;20058;-70
2022/04/06 07:51:12;;;;;;;27.37;6.83;;;;;;;;;;5097690;28;20044;-70
2022/04/06 07:53:38;;;;;;;17.27;6.67;;;;;;;;;;5106283;28;20048;-70
2022/04/06 07:56:06;;;;;;;23.97;7.30;;;;;;;;;;5070961;28;20055;-69
2022/04/06 07:58:32;;;;;;;19.87;6.90;;;;;;;;;;5090847;28;20035;-68
2022/04/06 08:00:59;;;;;;;13.37;6.70;;;;;;;;;;5093303;28;20054;-69
2022/04/06 08:03:24;;;;;;;21.63;7.37;;;;;;;;;;5101820;28;20039;-67
2022/04/06 08:05:50;;;;;;;19.60;7.03;;;;;;;;;;5093538;28;20512;-65
2022/04/06 08:08:16;;;;;;;21.50;7.07;;;;;;;;;;5091841;28;20093;-65
2022/04/06 08:10:43;;;;;;;17.07;6.87;;;;;;;;;;5089128;28;20109;-65
2022/04/06 08:13:09;;;;;;;25.20;7.17;;;;;;;;;;5088575;28;20040;-65
2022/04/06 08:15:35;;;;;;;17.97;6.03;;;;;;;;;;5088859;28;20040;-66
2022/04/06 08:18:00;;;;;;;22.60;6.60;;;;;;;;;;5088355;28;20603;-66
2022/04/06 08:20:27;;;;;;;13.80;6.03;;;;;;;;;;5088957;28;20123;-66
2022/04/06 08:23:01;;;;;;;22.13;6.50;;;;;;;;;;5088437;28;20044;-66
2022/04/06 08:28:33;;;;;;;20.58;7.25;;;;;;;;;;5047239;28;20131;-66
2022/04/06 08:31:02;;;;;;;21.70;7.90;;;;;;;;;;5090629;28;20044;-66
2022/04/06 08:33:29;;;;;;;22.00;7.10;;;;;;;;;;5097265;28;20043;-66
2022/04/06 08:35:57;;;;;;;20.77;6.80;;;;;;;;;;5096400;28;20052;-66
2022/04/06 08:38:29;;;;;;;19.03;6.93;;;;;;;;;;5097895;28;20083;-66
2022/04/06 08:40:57;;;;;;;15.50;5.33;;;;;;;;;;5107407;28;20140;-66
2022/04/06 08:43:42;;;;;;;22.27;5.50;;;;;;;;;;5105273;28;20485;-66
2022/04/06 08:46:26;;;;;;;20.03;5.73;;;;;;;;;;5087084;28;20305;-66
2022/04/06 08:48:53;;;;;;;18.73;6.30;;;;;;;;;;5087692;28;20056;-66
2022/04/06 08:51:19;;;;;;;23.20;6.50;;;;;;;;;;5085645;28;20395;-66
2022/04/06 08:53:46;;;;;;;19.73;5.37;;;;;;;;;;5095197;28;20069;-66
2022/04/06 08:56:13;;;;;;;16.87;5.00;;;;;;;;;;5095623;28;20031;-66
2022/04/06 08:58:39;;;;;;;15.33;5.00;;;;;;;;;;5095791;28;20044;-66
2022/04/06 09:01:06;;;;;;;18.30;5.63;;;;;;;;;;5096980;28;20100;-66
2022/04/06 09:03:40;;;;;;;27.07;7.57;;;;;;;;;;5094038;28;20155;-66
2022/04/06 09:06:08;;;;;;;25.67;7.70;;;;;;;;;;5078891;28;20085;-66
2022/04/06 09:08:42;;;;;;;25.60;8.07;;;;;;;;;;5089231;28;20118;-66
2022/04/06 09:11:10;;;;;;;19.23;8.70;;;;;;;;;;5096615;28;20046;-67
2022/04/06 09:13:37;;;;;;;19.20;6.53;;;;;;;;;;5067420;28;20067;-66
2022/04/06 09:16:04;;;;;;;18.07;7.20;;;;;;;;;;5095179;28;20042;-67
2022/04/06 09:18:38;;;;;;;18.40;6.47;;;;;;;;;;5099062;28;20052;-69
2022/04/06 09:21:04;;;;;;;19.13;5.53;;;;;;;;;;5093541;28;20040;-67
2022/04/06 09:23:31;;;;;;;18.30;5.43;;;;;;;;;;5097149;28;20043;-67
2022/04/06 09:26:05;;;;;;;13.53;5.60;;;;;;;;;;5080888;28;20109;-68
2022/04/06 09:28:31;;;;;;;12.98;5.13;;;;;;;;;;5090887;28;20130;-67
2022/04/06 09:30:58;;;;;;;12.37;5.50;;;;;;;;;;5091305;28;20854;-67
2022/04/06 09:33:28;;;;;;;15.67;5.63;;;;;;;;;;5103413;28;20043;-67
2022/04/06 09:35:55;;;;;;;8.50;5.03;;;;;;;;;;5099136;28;20063;-67
2022/04/06 09:38:24;;;;;;;13.93;6.70;;;;;;;;;;5100093;28;20051;-67
2022/04/06 09:40:51;;;;;;;15.83;6.40;;;;;;;;;;5101182;28;20068;-67
2022/04/06 09:43:25;;;;;;;18.43;5.87;;;;;;;;;;5100862;28;20085;-67
2022/04/06 09:49:02;;;;;;;12.10;6.10;;;;;;;;;;5098984;28;19924;-67
2022/04/06 09:51:29;;;;;;;13.60;6.37;;;;;;;;;;5094800;28;20433;-67
2022/04/06 09:53:55;;;;;;;19.53;6.93;;;;;;;;;;5098303;28;20052;-67
2022/04/06 09:56:22;;;;;;;19.00;6.90;;;;;;;;;;5094683;28;20040;-67
2022/04/06 09:58:48;;;;;;;17.70;6.37;;;;;;;;;;5074425;28;20123;-67
2022/04/06 10:01:15;;;;;;;13.13;7.10;;;;;;;;;;5090661;28;20044;-67
2022/04/06 10:03:44;;;;;;;13.90;6.27;;;;;;;;;;5090399;28;20066;-66
2022/04/06 10:06:11;;;;;;;18.53;6.70;;;;;;;;;;5095621;28;20096;-67
2022/04/06 10:08:39;;;;;;;14.60;6.23;;;;;;;;;;5083902;28;20119;-67
2022/04/06 10:11:06;;;;;;;16.90;6.50;;;;;;;;;;5091096;28;20429;-67
2022/04/06 10:13:32;;;;;;;15.93;6.03;;;;;;;;;;5090165;28;20082;-67
2022/04/06 10:15:59;;;;;;;18.67;6.07;;;;;;;;;;5090228;28;20052;-67
2022/04/06 10:18:29;;;;;;;16.67;6.07;;;;;;;;;;5079433;28;20067;-68
2022/04/06 10:21:00;;;;;;;17.93;5.97;;;;;;;;;;5110831;28;20054;-67
2022/04/06 10:23:44;;;;;;;16.27;6.33;;;;;;;;;;5092554;28;20047;-68
2022/04/06 10:26:22;;;;;;;13.03;5.70;;;;;;;;;;5101330;28;20056;-67
2022/04/06 10:28:51;;;;;;;15.97;6.37;;;;;;;;;;5098507;28;20448;-68
2022/04/06 10:31:17;;;;;;;18.20;5.63;;;;;;;;;;5103467;28;20047;-68
2022/04/06 10:33:44;;;;;;;14.07;5.47;;;;;;;;;;5097879;28;20072;-68
2022/04/06 10:36:16;;;;;;;11.93;6.20;;;;;;;;;;5091471;28;20502;-68
2022/04/06 10:39:02;;;;;;;13.47;5.73;;;;;;;;;;5096925;28;20119;-68
2022/04/06 10:41:28;;;;;;;17.23;5.20;;;;;;;;;;5101669;28;20043;-68
2022/04/06 10:43:55;;;;;;;10.57;5.27;;;;;;;;;;5108780;28;20043;-68
2022/04/06 10:46:34;;;;;;;13.97;6.47;;;;;;;;;;5094051;28;20039;-68
2022/04/06 10:49:06;;;;;;;13.67;6.80;;;;;;;;;;5078427;28;20043;-68
2022/04/06 10:51:37;;;;;;;19.80;7.07;;;;;;;;;;5097768;28;20058;-68
2022/04/06 10:54:15;;;;;;;11.87;5.90;;;;;;;;;;5091761;28;20090;-68
2022/04/06 10:56:50;;;;;;;11.60;6.13;;;;;;;;;;5090538;28;20043;-68
2022/04/06 10:59:20;;;;;;;14.10;6.30;;;;;;;;;;5091494;28;20043;-68
2022/04/06 11:01:48;;;;;;;11.63;5.70;;;;;;;;;;5089134;28;20044;-68
2022/04/06 11:04:20;;;;;;;13.20;6.20;;;;;;;;;;5089301;28;20048;-68
2022/04/06 11:06:52;;;;;;;22.13;7.87;;;;;;;;;;5098846;28;20404;-68
2022/04/06 11:12:22;;;;;;;21.07;10.37;;;;;;;;;;5097102;28;20055;-67
2022/04/06 11:15:09;;;;;;;19.93;11.03;;;;;;;;;;5089719;28;20047;-67
2022/04/06 11:17:41;;;;;;;22.70;12.40;;;;;;;;;;5075894;28;20083;-67
2022/04/06 11:20:10;;;;;;;26.23;12.00;;;;;;;;;;5092757;28;20488;-67
2022/04/06 11:22:38;;;;;;;18.50;11.13;;;;;;;;;;5104047;28;20043;-67
2022/04/06 11:25:06;;;;;;;21.67;11.33;;;;;;;;;;5098547;28;20434;-67
2022/04/06 11:27:33;;;;;;;22.00;11.83;;;;;;;;;;5089265;28;20040;-67
2022/04/06 11:30:13;;;;;;;18.73;10.67;;;;;;;;;;5089244;28;20494;-67
2022/04/06 11:32:40;;;;;;;17.23;9.87;;;;;;;;;;5090714;28;20494;-67
2022/04/06 11:35:10;;;;;;;18.33;10.90;;;;;;;;;;5103787;28;20052;-67
2022/04/06 11:37:41;;;;;;;17.97;10.70;;;;;;;;;;5078515;28;20119;-67
2022/04/06 11:40:07;;;;;;;26.33;10.70;;;;;;;;;;5107770;28;20040;-67
2022/04/06 11:42:33;;;;;;;21.73;9.57;;;;;;;;;;5091772;28;20040;-67
2022/04/06 11:44:59;;;;;;;20.70;11.80;;;;;;;;;;5102585;28;20520;-67
2022/04/06 11:47:32;;;;;;;24.83;12.27;;;;;;;;;;5088968;28;20036;-66
2022/04/06 11:49:59;;;;;;;26.75;13.30;;;;;;;;;;5070349;28;20414;-66
2022/04/06 11:52:25;;;;;;;25.47;12.23;;;;;;;;;;5089233;28;20051;-66
2022/04/06 11:54:52;;;;;;;21.93;12.43;;;;;;;;;;5089274;28;20415;-66
2022/04/06 11:57:18;;;;;;;22.63;14.00;;;;;;;;;;5070890;28;20056;-66
2022/04/06 12:00:04;;;;;;;20.60;11.00;;;;;;;;;;5089177;28;20059;-66
2022/04/06 12:02:50;;;;;;;13.87;10.20;;;;;;;;;;5089441;28;20168;-66
2022/04/06 12:05:17;;;;;;;17.83;10.20;;;;;;;;;;5100257;28;20055;-66
2022/04/06 12:07:44;;;;;;;16.33;8.87;;;;;;;;;;5099069;28;20409;-66
2022/04/06 12:10:10;;;;;;;17.73;8.70;;;;;;;;;;5092610;28;20067;-66
2022/04/06 12:12:37;;;;;;;16.80;9.13;;;;;;;;;;5089146;28;20071;-67
2022/04/06 12:15:06;;;;;;;15.43;9.27;;;;;;;;;;5097035;28;20051;-66
2022/04/06 12:17:36;;;;;;;19.40;9.00;;;;;;;;;;5097678;28;20069;-67
2022/04/06 12:20:08;;;;;;;17.00;8.70;;;;;;;;;;5088856;28;20073;-67
2022/04/06 12:22:34;;;;;;;15.82;8.30;;;;;;;;;;5088069;28;20036;-67
2022/04/06 12:25:00;;;;;;;18.77;9.03;;;;;;;;;;5095469;28;20081;-67
2022/04/06 12:27:28;;;;;;;19.03;9.77;;;;;;;;;;5081843;28;20044;-68
2022/04/06 12:30:06;;;;;;;17.93;9.73;;;;;;;;;;5092399;28;20043;-67
2022/04/06 12:32:45;;;;;;;16.77;9.40;;;;;;;;;;5105656;28;20048;-68
2022/04/06 12:35:20;;;;;;;18.77;10.30;;;;;;;;;;5100419;28;20085;-67
2022/04/06 12:37:46;;;;;;;17.27;10.30;;;;;;;;;;5107281;28;20052;-68
2022/04/06 12:40:21;;;;;;;14.73;9.33;;;;;;;;;;5090145;28;20052;-67
2022/04/06 12:42:47;;;;;;;18.90;10.93;;;;;;;;;;5095487;28;20549;-68
2022/04/06 12:45:13;;;;;;;17.67;10.27;;;;;;;;;;5085158;28;20414;-67
2022/04/06 12:47:39;;;;;;;22.53;10.10;;;;;;;;;;5088263;28;20036;-68
2022/04/06 12:50:21;;;;;;;19.57;9.90;;;;;;;;;;5099706;28;20097;-68
2022/04/06 12:53:03;;;;;;;15.40;8.40;;;;;;;;;;5087746;28;20048;-67
2022/04/06 12:55:29;;;;;;;15.20;9.60;;;;;;;;;;5087725;28;20044;-67
2022/04/06 12:58:13;;;;;;;16.40;8.77;;;;;;;;;;5092225;28;20040;-67
2022/04/06 13:00:39;;;;;;;18.00;9.50;;;;;;;;;;5099935;28;20574;-68
2022/04/06 13:03:05;;;;;;;14.33;8.57;;;;;;;;;;5100516;28;20166;-68
2022/04/06 13:05:32;;;;;;;17.83;10.40;;;;;;;;;;5098962;28;20036;-68
2022/04/06 13:07:57;;;;;;;13.60;8.43;;;;;;;;;;5096416;28;20090;-68
2022/04/06 13:10:26;;;;;;;14.53;9.27;;;;;;;;;;5091305;28;20040;-67
2022/04/06 13:12:52;;;;;;;18.13;8.40;;;;;;;;;;5092670;28;20431;-68
2022/04/06 13:15:18;;;;;;;13.83;7.60;;;;;;;;;;5095581;28;20063;-68
2022/04/06 13:17:46;;;;;;;15.13;8.93;;;;;;;;;;5096420;28;20055;-68
2022/04/06 13:20:13;;;;;;;12.53;8.40;;;;;;;;;;5105244;28;20566;-68
2022/04/06 13:22:39;;;;;;;13.23;8.10;;;;;;;;;;5093956;28;20040;-68
2022/04/06 13:25:06;;;;;;;15.80;8.83;;;;;;;;;;5092922;28;20047;-68
2022/04/06 13:27:32;;;;;;;13.70;9.40;;;;;;;;;;5106275;28;20082;-68
2022/04/06 13:29:59;;;;;;;15.77;9.73;;;;;;;;;;5091219;28;20122;-68
2022/04/06 13:32:25;;;;;;;15.73;10.50;;;;;;;;;;5108035;28;20060;-69
2022/04/06 13:34:51;;;;;;;25.37;13.30;;;;;;;;;;5107277;28;20039;-68
2022/04/06 13:37:18;;;;;;;31.40;13.53;;;;;;;;;;5103822;28;20058;-67
2022/04/06 13:39:45;;;;;;;24.77;11.07;;;;;;;;;;5097590;28;20405;-67
2022/04/06 13:42:11;;;;;;;20.57;12.87;;;;;;;;;;5109097;28;20039;-67
2022/04/06 13:44:37;;;;;;;23.53;14.10;;;;;;;;;;5111095;28;20142;-67
2022/04/06 13:47:05;;;;;;;22.30;13.13;;;;;;;;;;5111851;28;20044;-68
2022/04/06 13:49:31;;;;;;;26.47;12.97;;;;;;;;;;5112043;28;20114;-67
2022/04/06 13:51:57;;;;;;;24.10;13.67;;;;;;;;;;5101343;28;20497;-67
2022/04/06 13:54:24;;;;;;;26.70;14.60;;;;;;;;;;5111856;28;20043;-67
2022/04/06 13:56:51;;;;;;;25.20;14.57;;;;;;;;;;5111289;28;20088;-67
2022/04/06 13:59:17;;;;;;;23.03;15.80;;;;;;;;;;5067280;28;20097;-68
2022/04/06 14:01:44;;;;;;;25.43;15.87;;;;;;;;;;5091568;28;20051;-68
2022/04/06 14:04:10;;;;;;;26.23;15.97;;;;;;;;;;5090962;28;20040;-68
2022/04/06 14:06:36;;;;;;;32.40;17.47;;;;;;;;;;5090831;28;20048;-67
2022/04/06 14:09:04;;;;;;;25.07;16.60;;;;;;;;;;5091135;28;20137;-67
2022/04/06 14:11:30;;;;;;;40.47;18.17;;;;;;;;;;5091304;28;20127;-69
2022/04/06 14:13:56;;;;;;;37.57;19.03;;;;;;;;;;5098782;28;20040;-69
2022/04/06 14:16:22;;;;;;;28.77;15.80;;;;;;;;;;5102826;28;20044;-69
2022/04/06 14:18:49;;;;;;;35.43;17.90;;;;;;;;;;5090616;28;20066;-70
2022/04/06 14:21:17;;;;;;;30.60;16.60;;;;;;;;;;5091093;28;20048;-69
2022/04/06 14:23:43;;;;;;;23.80;15.03;;;;;;;;;;5090961;28;20036;-69
2022/04/06 14:26:10;;;;;;;21.60;15.20;;;;;;;;;;5090381;28;20048;-69
2022/04/06 14:28:36;;;;;;;27.47;16.47;;;;;;;;;;5093990;28;20486;-69
2022/04/06 14:31:03;;;;;;;31.10;16.80;;;;;;;;;;5090373;28;20040;-69
2022/04/06 14:33:29;;;;;;;29.27;15.83;;;;;;;;;;5090726;28;20036;-69
2022/04/06 14:35:55;;;;;;;25.97;16.50;;;;;;;;;;5104005;28;20201;-69
2022/04/06 14:38:21;;;;;;;22.00;14.87;;;;;;;;;;5090736;28;20138;-69
2022/04/06 14:40:47;;;;;;;17.63;14.50;;;;;;;;;;5072219;28;20137;-69